sensor_id;sensor_type;location;lat;lon;timestamp;temperature;humidity
63435;DHT22;68814;50.872;5.306;2024-01-06T00:01:42;7.50;99.90
63435;DHT22;68814;50.872;5.306;2024-01-06T00:04:08;7.50;99.90
63435;DHT22;68814;50.872;5.306;2024-01-06T00:06:35;7.50;99.90
63435;DHT22;68814;50.872;5.306;2024-01-06T00:09:01;7.50;99.90
63435;DHT22;68814;50.872;5.306;2024-01-06T00:11:27;7.50;99.90
63435;DHT22;68814;50.872;5.306;2024-01-06T00:13:53;7.50;99.90
63435;DHT22;68814;50.872;5.306;2024-01-06T00:16:20;7.50;99.90
63435;DHT22;68814;50.872;5.306;2024-01-06T00:18:53;7.50;99.90
63435;DHT22;68814;50.872;5.306;2024-01-06T00:21:20;7.50;99.90
63435;DHT22;68814;50.872;5.306;2024-01-06T00:23:46;7.50;99.90
63435;DHT22;68814;50.872;5.306;2024-01-06T00:26:12;7.40;99.90
63435;DHT22;68814;50.872;5.306;2024-01-06T00:28:39;7.50;99.90
63435;DHT22;68814;50.872;5.306;2024-01-06T00:31:05;7.40;99.90
63435;DHT22;68814;50.872;5.306;2024-01-06T00:33:31;7.40;99.90
63435;DHT22;68814;50.872;5.306;2024-01-06T00:35:57;7.50;99.90
63435;DHT22;68814;50.872;5.306;2024-01-06T00:38:23;7.50;99.90
63435;DHT22;68814;50.872;5.306;2024-01-06T00:40:49;7.50;99.90
63435;DHT22;68814;50.872;5.306;2024-01-06T00:43:15;7.50;99.90
63435;DHT22;68814;50.872;5.306;2024-01-06T00:45:41;7.50;99.90
63435;DHT22;68814;50.872;5.306;2024-01-06T00:48:07;7.50;99.90
63435;DHT22;68814;50.872;5.306;2024-01-06T00:50:33;7.50;99.90
63435;DHT22;68814;50.872;5.306;2024-01-06T00:52:59;7.40;99.90
63435;DHT22;68814;50.872;5.306;2024-01-06T00:55:25;7.40;99.90
63435;DHT22;68814;50.872;5.306;2024-01-06T00:57:51;7.40;99.90
63435;DHT22;68814;50.872;5.306;2024-01-06T01:00:18;7.40;99.90
63435;DHT22;68814;50.872;5.306;2024-01-06T01:02:44;7.40;99.90
63435;DHT22;68814;50.872;5.306;2024-01-06T01:05:11;7.40;99.90
63435;DHT22;68814;50.872;5.306;2024-01-06T01:07:39;7.40;99.90
63435;DHT22;68814;50.872;5.306;2024-01-06T01:10:05;7.40;99.90
63435;DHT22;68814;50.872;5.306;2024-01-06T01:12:31;7.40;99.90
63435;DHT22;68814;50.872;5.306;2024-01-06T01:14:57;7.40;99.90
63435;DHT22;68814;50.872;5.306;2024-01-06T01:17:25;7.40;99.90
63435;DHT22;68814;50.872;5.306;2024-01-06T01:19:51;7.40;99.90
63435;DHT22;68814;50.872;5.306;2024-01-06T01:22:17;7.40;99.90
63435;DHT22;68814;50.872;5.306;2024-01-06T01:24:42;7.30;99.90
63435;DHT22;68814;50.872;5.306;2024-01-06T01:27:09;7.30;99.90
63435;DHT22;68814;50.872;5.306;2024-01-06T01:29:35;7.30;99.90
63435;DHT22;68814;50.872;5.306;2024-01-06T01:32:00;7.30;99.90
63435;DHT22;68814;50.872;5.306;2024-01-06T01:34:26;7.30;99.90
63435;DHT22;68814;50.872;5.306;2024-01-06T01:36:54;7.30;99.90
63435;DHT22;68814;50.872;5.306;2024-01-06T01:39:21;7.30;99.90
63435;DHT22;68814;50.872;5.306;2024-01-06T01:41:46;7.30;99.90
63435;DHT22;68814;50.872;5.306;2024-01-06T01:44:12;7.30;99.90
63435;DHT22;68814;50.872;5.306;2024-01-06T01:46:38;7.30;99.90
63435;DHT22;68814;50.872;5.306;2024-01-06T01:49:05;7.30;99.90
63435;DHT22;68814;50.872;5.306;2024-01-06T01:51:34;7.20;99.90
63435;DHT22;68814;50.872;5.306;2024-01-06T01:54:01;7.20;99.90
63435;DHT22;68814;50.872;5.306;2024-01-06T01:56:28;7.20;99.90
63435;DHT22;68814;50.872;5.306;2024-01-06T01:58:54;7.20;99.90
63435;DHT22;68814;50.872;5.306;2024-01-06T02:01:20;7.20;99.90
63435;DHT22;68814;50.872;5.306;2024-01-06T02:03:47;7.20;99.90
63435;DHT22;68814;50.872;5.306;2024-01-06T02:06:13;7.20;99.90
63435;DHT22;68814;50.872;5.306;2024-01-06T02:08:39;7.20;99.90
63435;DHT22;68814;50.872;5.306;2024-01-06T02:11:05;7.20;99.90
63435;DHT22;68814;50.872;5.306;2024-01-06T02:13:35;7.10;99.90
63435;DHT22;68814;50.872;5.306;2024-01-06T02:16:05;7.10;99.90
63435;DHT22;68814;50.872;5.306;2024-01-06T02:18:32;7.10;99.90
63435;DHT22;68814;50.872;5.306;2024-01-06T02:21:00;7.10;99.90
63435;DHT22;68814;50.872;5.306;2024-01-06T02:23:27;7.10;99.90
63435;DHT22;68814;50.872;5.306;2024-01-06T02:25:53;7.10;99.90
63435;DHT22;68814;50.872;5.306;2024-01-06T02:28:19;7.10;99.90
63435;DHT22;68814;50.872;5.306;2024-01-06T02:30:45;7.10;99.90
63435;DHT22;68814;50.872;5.306;2024-01-06T02:33:11;7.10;99.90
63435;DHT22;68814;50.872;5.306;2024-01-06T02:35:37;7.10;99.90
63435;DHT22;68814;50.872;5.306;2024-01-06T02:38:03;7.10;99.90
63435;DHT22;68814;50.872;5.306;2024-01-06T02:40:30;7.10;99.90
63435;DHT22;68814;50.872;5.306;2024-01-06T02:42:58;7.10;99.90
63435;DHT22;68814;50.872;5.306;2024-01-06T02:45:24;7.10;99.90
63435;DHT22;68814;50.872;5.306;2024-01-06T02:47:51;7.10;99.90
63435;DHT22;68814;50.872;5.306;2024-01-06T02:50:17;7.10;99.90
63435;DHT22;68814;50.872;5.306;2024-01-06T02:52:44;7.10;99.90
63435;DHT22;68814;50.872;5.306;2024-01-06T02:55:11;7.10;99.90
63435;DHT22;68814;50.872;5.306;2024-01-06T02:57:38;7.10;99.90
63435;DHT22;68814;50.872;5.306;2024-01-06T03:00:04;7.10;99.90
63435;DHT22;68814;50.872;5.306;2024-01-06T03:02:32;7.10;99.90
63435;DHT22;68814;50.872;5.306;2024-01-06T03:04:58;7.10;99.90
63435;DHT22;68814;50.872;5.306;2024-01-06T03:07:24;7.10;99.90
63435;DHT22;68814;50.872;5.306;2024-01-06T03:09:50;7.10;99.90
63435;DHT22;68814;50.872;5.306;2024-01-06T03:12:15;7.00;99.90
63435;DHT22;68814;50.872;5.306;2024-01-06T03:14:42;6.90;99.90
63435;DHT22;68814;50.872;5.306;2024-01-06T03:17:07;6.90;99.90
63435;DHT22;68814;50.872;5.306;2024-01-06T03:19:36;6.90;99.90
63435;DHT22;68814;50.872;5.306;2024-01-06T03:22:02;6.90;99.90
63435;DHT22;68814;50.872;5.306;2024-01-06T03:24:29;6.90;99.90
63435;DHT22;68814;50.872;5.306;2024-01-06T03:26:56;6.80;99.90
63435;DHT22;68814;50.872;5.306;2024-01-06T03:29:22;6.80;99.90
63435;DHT22;68814;50.872;5.306;2024-01-06T03:31:48;6.80;99.90
63435;DHT22;68814;50.872;5.306;2024-01-06T03:34:14;6.80;99.90
63435;DHT22;68814;50.872;5.306;2024-01-06T03:36:40;6.80;99.90
63435;DHT22;68814;50.872;5.306;2024-01-06T03:39:07;6.80;99.90
63435;DHT22;68814;50.872;5.306;2024-01-06T03:41:33;6.80;99.90
63435;DHT22;68814;50.872;5.306;2024-01-06T03:43:59;6.80;99.90
63435;DHT22;68814;50.872;5.306;2024-01-06T03:46:24;6.80;99.90
63435;DHT22;68814;50.872;5.306;2024-01-06T03:48:50;6.80;99.90
63435;DHT22;68814;50.872;5.306;2024-01-06T03:51:16;6.80;99.90
63435;DHT22;68814;50.872;5.306;2024-01-06T03:53:42;6.80;99.90
63435;DHT22;68814;50.872;5.306;2024-01-06T03:56:07;6.80;99.90
63435;DHT22;68814;50.872;5.306;2024-01-06T03:58:34;6.80;99.90
63435;DHT22;68814;50.872;5.306;2024-01-06T04:01:00;6.70;99.90
63435;DHT22;68814;50.872;5.306;2024-01-06T04:03:26;6.70;99.90
63435;DHT22;68814;50.872;5.306;2024-01-06T04:05:52;6.60;99.90
63435;DHT22;68814;50.872;5.306;2024-01-06T04:08:18;6.60;99.90
63435;DHT22;68814;50.872;5.306;2024-01-06T04:10:44;6.60;99.90
63435;DHT22;68814;50.872;5.306;2024-01-06T04:13:14;6.60;99.90
63435;DHT22;68814;50.872;5.306;2024-01-06T04:15:40;6.70;99.90
63435;DHT22;68814;50.872;5.306;2024-01-06T04:18:06;6.70;99.90
63435;DHT22;68814;50.872;5.306;2024-01-06T04:20:34;6.70;99.90
63435;DHT22;68814;50.872;5.306;2024-01-06T04:23:00;6.70;99.90
63435;DHT22;68814;50.872;5.306;2024-01-06T04:25:25;6.70;99.90
63435;DHT22;68814;50.872;5.306;2024-01-06T04:27:51;6.80;99.90
63435;DHT22;68814;50.872;5.306;2024-01-06T04:30:17;6.80;99.90
63435;DHT22;68814;50.872;5.306;2024-01-06T04:32:45;6.80;99.90
63435;DHT22;68814;50.872;5.306;2024-01-06T04:35:14;6.70;99.90
63435;DHT22;68814;50.872;5.306;2024-01-06T04:37:39;6.70;99.90
63435;DHT22;68814;50.872;5.306;2024-01-06T04:40:07;6.70;99.90
63435;DHT22;68814;50.872;5.306;2024-01-06T04:42:33;6.70;99.90
63435;DHT22;68814;50.872;5.306;2024-01-06T04:44:59;6.60;99.90
63435;DHT22;68814;50.872;5.306;2024-01-06T04:47:25;6.60;99.90
63435;DHT22;68814;50.872;5.306;2024-01-06T04:49:53;6.50;99.90
63435;DHT22;68814;50.872;5.306;2024-01-06T04:52:19;6.50;99.90
63435;DHT22;68814;50.872;5.306;2024-01-06T04:54:46;6.40;99.90
63435;DHT22;68814;50.872;5.306;2024-01-06T04:57:11;6.40;99.90
63435;DHT22;68814;50.872;5.306;2024-01-06T04:59:37;6.30;99.90
63435;DHT22;68814;50.872;5.306;2024-01-06T05:02:04;6.30;99.90
63435;DHT22;68814;50.872;5.306;2024-01-06T05:04:30;6.30;99.90
63435;DHT22;68814;50.872;5.306;2024-01-06T05:06:58;6.30;99.90
63435;DHT22;68814;50.872;5.306;2024-01-06T05:09:25;6.30;99.90
63435;DHT22;68814;50.872;5.306;2024-01-06T05:11:52;6.30;99.90
63435;DHT22;68814;50.872;5.306;2024-01-06T05:14:17;6.20;99.90
63435;DHT22;68814;50.872;5.306;2024-01-06T05:16:43;6.10;99.90
63435;DHT22;68814;50.872;5.306;2024-01-06T05:19:09;6.10;99.90
63435;DHT22;68814;50.872;5.306;2024-01-06T05:21:36;6.00;99.90
63435;DHT22;68814;50.872;5.306;2024-01-06T05:24:02;5.90;99.90
63435;DHT22;68814;50.872;5.306;2024-01-06T05:26:28;5.80;99.90
63435;DHT22;68814;50.872;5.306;2024-01-06T05:28:54;5.80;99.90
63435;DHT22;68814;50.872;5.306;2024-01-06T05:31:20;5.80;99.90
63435;DHT22;68814;50.872;5.306;2024-01-06T05:33:46;5.80;99.90
63435;DHT22;68814;50.872;5.306;2024-01-06T05:36:12;5.80;99.90
63435;DHT22;68814;50.872;5.306;2024-01-06T05:38:38;5.80;99.90
63435;DHT22;68814;50.872;5.306;2024-01-06T05:41:05;5.80;99.90
63435;DHT22;68814;50.872;5.306;2024-01-06T05:43:30;5.80;99.90
63435;DHT22;68814;50.872;5.306;2024-01-06T05:45:56;5.70;99.90
63435;DHT22;68814;50.872;5.306;2024-01-06T05:48:22;5.70;99.90
63435;DHT22;68814;50.872;5.306;2024-01-06T05:50:47;5.60;99.90
63435;DHT22;68814;50.872;5.306;2024-01-06T05:53:13;5.60;99.90
63435;DHT22;68814;50.872;5.306;2024-01-06T05:55:40;5.70;99.90
63435;DHT22;68814;50.872;5.306;2024-01-06T05:58:06;5.70;99.90
63435;DHT22;68814;50.872;5.306;2024-01-06T06:00:33;5.70;99.90
63435;DHT22;68814;50.872;5.306;2024-01-06T06:02:58;5.60;99.90
63435;DHT22;68814;50.872;5.306;2024-01-06T06:05:24;5.60;99.90
63435;DHT22;68814;50.872;5.306;2024-01-06T06:07:50;5.60;99.90
63435;DHT22;68814;50.872;5.306;2024-01-06T06:10:16;5.60;99.90
63435;DHT22;68814;50.872;5.306;2024-01-06T06:12:44;5.60;99.90
63435;DHT22;68814;50.872;5.306;2024-01-06T06:15:10;5.50;99.90
63435;DHT22;68814;50.872;5.306;2024-01-06T06:17:36;5.60;99.90
63435;DHT22;68814;50.872;5.306;2024-01-06T06:20:02;5.50;99.90
63435;DHT22;68814;50.872;5.306;2024-01-06T06:22:28;5.60;99.90
63435;DHT22;68814;50.872;5.306;2024-01-06T06:24:58;5.60;99.90
63435;DHT22;68814;50.872;5.306;2024-01-06T06:27:24;5.60;99.90
63435;DHT22;68814;50.872;5.306;2024-01-06T06:29:50;5.60;99.90
63435;DHT22;68814;50.872;5.306;2024-01-06T06:32:16;5.60;99.90
63435;DHT22;68814;50.872;5.306;2024-01-06T06:34:43;5.60;99.90
63435;DHT22;68814;50.872;5.306;2024-01-06T06:37:09;5.60;99.90
63435;DHT22;68814;50.872;5.306;2024-01-06T06:39:36;5.60;99.90
63435;DHT22;68814;50.872;5.306;2024-01-06T06:42:02;5.60;99.90
63435;DHT22;68814;50.872;5.306;2024-01-06T06:44:29;5.60;99.90
63435;DHT22;68814;50.872;5.306;2024-01-06T06:46:56;5.60;99.90
63435;DHT22;68814;50.872;5.306;2024-01-06T06:49:23;5.70;99.90
63435;DHT22;68814;50.872;5.306;2024-01-06T06:51:48;5.70;99.90
63435;DHT22;68814;50.872;5.306;2024-01-06T06:54:15;5.60;99.90
63435;DHT22;68814;50.872;5.306;2024-01-06T06:56:42;5.60;99.90
63435;DHT22;68814;50.872;5.306;2024-01-06T06:59:09;5.70;99.90
63435;DHT22;68814;50.872;5.306;2024-01-06T07:01:37;5.70;99.90
63435;DHT22;68814;50.872;5.306;2024-01-06T07:04:03;5.70;99.90
63435;DHT22;68814;50.872;5.306;2024-01-06T07:06:29;5.60;99.90
63435;DHT22;68814;50.872;5.306;2024-01-06T07:08:56;5.60;99.90
63435;DHT22;68814;50.872;5.306;2024-01-06T07:11:21;5.60;99.90
63435;DHT22;68814;50.872;5.306;2024-01-06T07:13:47;5.60;99.90
63435;DHT22;68814;50.872;5.306;2024-01-06T07:16:13;5.60;99.90
63435;DHT22;68814;50.872;5.306;2024-01-06T07:18:39;5.60;99.90
63435;DHT22;68814;50.872;5.306;2024-01-06T07:21:05;5.60;99.90
63435;DHT22;68814;50.872;5.306;2024-01-06T07:23:35;5.60;99.90
63435;DHT22;68814;50.872;5.306;2024-01-06T07:26:01;5.50;99.90
63435;DHT22;68814;50.872;5.306;2024-01-06T07:28:27;5.50;99.90
63435;DHT22;68814;50.872;5.306;2024-01-06T07:30:53;5.50;99.90
63435;DHT22;68814;50.872;5.306;2024-01-06T07:33:19;5.40;99.90
63435;DHT22;68814;50.872;5.306;2024-01-06T07:35:46;5.40;99.90
63435;DHT22;68814;50.872;5.306;2024-01-06T07:38:12;5.40;99.90
63435;DHT22;68814;50.872;5.306;2024-01-06T07:40:40;5.40;99.90
63435;DHT22;68814;50.872;5.306;2024-01-06T07:43:06;5.30;99.90
63435;DHT22;68814;50.872;5.306;2024-01-06T07:45:32;5.20;99.90
63435;DHT22;68814;50.872;5.306;2024-01-06T07:47:59;5.20;99.90
63435;DHT22;68814;50.872;5.306;2024-01-06T07:50:25;5.20;99.90
63435;DHT22;68814;50.872;5.306;2024-01-06T07:52:51;5.20;99.90
63435;DHT22;68814;50.872;5.306;2024-01-06T07:55:17;5.10;99.90
63435;DHT22;68814;50.872;5.306;2024-01-06T07:57:44;5.20;99.90
63435;DHT22;68814;50.872;5.306;2024-01-06T08:00:11;5.20;99.90
63435;DHT22;68814;50.872;5.306;2024-01-06T08:02:43;5.10;99.90
63435;DHT22;68814;50.872;5.306;2024-01-06T08:05:10;5.10;99.90
63435;DHT22;68814;50.872;5.306;2024-01-06T08:07:36;5.10;99.90
63435;DHT22;68814;50.872;5.306;2024-01-06T08:10:04;5.10;99.90
63435;DHT22;68814;50.872;5.306;2024-01-06T08:12:30;5.10;99.90
63435;DHT22;68814;50.872;5.306;2024-01-06T08:14:56;5.10;99.90
63435;DHT22;68814;50.872;5.306;2024-01-06T08:17:22;5.10;99.90
63435;DHT22;68814;50.872;5.306;2024-01-06T08:19:47;5.20;99.90
63435;DHT22;68814;50.872;5.306;2024-01-06T08:22:13;5.20;99.90
63435;DHT22;68814;50.872;5.306;2024-01-06T08:24:40;5.20;99.90
63435;DHT22;68814;50.872;5.306;2024-01-06T08:27:06;5.20;99.90
63435;DHT22;68814;50.872;5.306;2024-01-06T08:29:32;5.30;99.90
63435;DHT22;68814;50.872;5.306;2024-01-06T08:31:58;5.20;99.90
63435;DHT22;68814;50.872;5.306;2024-01-06T08:34:25;5.30;99.90
63435;DHT22;68814;50.872;5.306;2024-01-06T08:36:51;5.30;99.90
63435;DHT22;68814;50.872;5.306;2024-01-06T08:39:18;5.30;99.90
63435;DHT22;68814;50.872;5.306;2024-01-06T08:41:44;5.30;99.90
63435;DHT22;68814;50.872;5.306;2024-01-06T08:44:10;5.20;99.90
63435;DHT22;68814;50.872;5.306;2024-01-06T08:46:36;5.20;99.90
63435;DHT22;68814;50.872;5.306;2024-01-06T08:49:02;5.20;99.90
63435;DHT22;68814;50.872;5.306;2024-01-06T08:51:28;5.20;99.90
63435;DHT22;68814;50.872;5.306;2024-01-06T08:53:56;5.20;99.90
63435;DHT22;68814;50.872;5.306;2024-01-06T08:56:22;5.20;99.90
63435;DHT22;68814;50.872;5.306;2024-01-06T08:58:48;5.20;99.90
63435;DHT22;68814;50.872;5.306;2024-01-06T09:01:13;5.20;99.90
63435;DHT22;68814;50.872;5.306;2024-01-06T09:03:40;5.20;99.90
63435;DHT22;68814;50.872;5.306;2024-01-06T09:06:05;5.20;99.90
63435;DHT22;68814;50.872;5.306;2024-01-06T09:08:31;5.30;99.90
63435;DHT22;68814;50.872;5.306;2024-01-06T09:10:57;5.30;99.90
63435;DHT22;68814;50.872;5.306;2024-01-06T09:13:24;5.30;99.90
63435;DHT22;68814;50.872;5.306;2024-01-06T09:15:51;5.30;99.90
63435;DHT22;68814;50.872;5.306;2024-01-06T09:18:17;5.30;99.90
63435;DHT22;68814;50.872;5.306;2024-01-06T09:20:42;5.30;99.90
63435;DHT22;68814;50.872;5.306;2024-01-06T09:23:08;5.30;99.90
63435;DHT22;68814;50.872;5.306;2024-01-06T09:25:37;5.30;99.90
63435;DHT22;68814;50.872;5.306;2024-01-06T09:28:06;5.30;99.90
63435;DHT22;68814;50.872;5.306;2024-01-06T09:30:32;5.30;99.90
63435;DHT22;68814;50.872;5.306;2024-01-06T09:32:58;5.30;99.90
63435;DHT22;68814;50.872;5.306;2024-01-06T09:35:28;5.30;99.90
63435;DHT22;68814;50.872;5.306;2024-01-06T09:37:55;5.30;99.90
63435;DHT22;68814;50.872;5.306;2024-01-06T09:40:22;5.30;99.90
63435;DHT22;68814;50.872;5.306;2024-01-06T09:42:49;5.30;99.90
63435;DHT22;68814;50.872;5.306;2024-01-06T09:45:15;5.40;99.90
63435;DHT22;68814;50.872;5.306;2024-01-06T09:47:41;5.40;99.90
63435;DHT22;68814;50.872;5.306;2024-01-06T09:50:09;5.40;99.90
63435;DHT22;68814;50.872;5.306;2024-01-06T09:52:40;5.40;99.90
63435;DHT22;68814;50.872;5.306;2024-01-06T09:55:11;5.40;99.90
63435;DHT22;68814;50.872;5.306;2024-01-06T09:57:37;5.40;99.90
63435;DHT22;68814;50.872;5.306;2024-01-06T10:00:04;5.40;99.90
63435;DHT22;68814;50.872;5.306;2024-01-06T10:02:30;5.40;99.90
63435;DHT22;68814;50.872;5.306;2024-01-06T10:04:57;5.40;99.90
63435;DHT22;68814;50.872;5.306;2024-01-06T10:07:25;5.40;99.90
63435;DHT22;68814;50.872;5.306;2024-01-06T10:09:54;5.40;99.90
63435;DHT22;68814;50.872;5.306;2024-01-06T10:12:27;5.40;99.90
63435;DHT22;68814;50.872;5.306;2024-01-06T10:14:54;5.40;99.90
63435;DHT22;68814;50.872;5.306;2024-01-06T10:17:20;5.40;99.90
63435;DHT22;68814;50.872;5.306;2024-01-06T10:19:46;5.40;99.90
63435;DHT22;68814;50.872;5.306;2024-01-06T10:22:13;5.30;99.90
63435;DHT22;68814;50.872;5.306;2024-01-06T10:24:41;5.30;99.90
63435;DHT22;68814;50.872;5.306;2024-01-06T10:27:07;5.20;99.90
63435;DHT22;68814;50.872;5.306;2024-01-06T10:29:34;5.10;99.90
63435;DHT22;68814;50.872;5.306;2024-01-06T10:32:00;5.10;99.90
63435;DHT22;68814;50.872;5.306;2024-01-06T10:34:26;5.10;99.90
63435;DHT22;68814;50.872;5.306;2024-01-06T10:36:53;5.10;99.90
63435;DHT22;68814;50.872;5.306;2024-01-06T10:39:20;5.10;99.90
63435;DHT22;68814;50.872;5.306;2024-01-06T10:41:48;5.10;99.90
63435;DHT22;68814;50.872;5.306;2024-01-06T10:44:15;5.10;99.90
63435;DHT22;68814;50.872;5.306;2024-01-06T10:46:42;5.20;99.90
63435;DHT22;68814;50.872;5.306;2024-01-06T10:49:09;5.10;99.90
63435;DHT22;68814;50.872;5.306;2024-01-06T10:51:38;5.10;99.90
63435;DHT22;68814;50.872;5.306;2024-01-06T10:54:05;5.20;99.90
63435;DHT22;68814;50.872;5.306;2024-01-06T10:56:37;5.20;99.90
63435;DHT22;68814;50.872;5.306;2024-01-06T10:59:05;5.20;99.90
63435;DHT22;68814;50.872;5.306;2024-01-06T11:01:34;5.20;99.90
63435;DHT22;68814;50.872;5.306;2024-01-06T11:04:00;5.30;99.90
63435;DHT22;68814;50.872;5.306;2024-01-06T11:06:26;5.30;99.90
63435;DHT22;68814;50.872;5.306;2024-01-06T11:09:11;5.30;99.90
63435;DHT22;68814;50.872;5.306;2024-01-06T11:11:40;5.30;99.90
63435;DHT22;68814;50.872;5.306;2024-01-06T11:14:26;5.30;99.90
63435;DHT22;68814;50.872;5.306;2024-01-06T11:16:53;5.40;99.90
63435;DHT22;68814;50.872;5.306;2024-01-06T11:22:33;5.50;99.90
63435;DHT22;68814;50.872;5.306;2024-01-06T11:25:13;5.60;99.90
63435;DHT22;68814;50.872;5.306;2024-01-06T11:27:39;5.50;99.90
63435;DHT22;68814;50.872;5.306;2024-01-06T11:30:07;5.50;99.90
63435;DHT22;68814;50.872;5.306;2024-01-06T11:32:35;5.60;99.90
63435;DHT22;68814;50.872;5.306;2024-01-06T11:45:27;5.70;99.90
63435;DHT22;68814;50.872;5.306;2024-01-06T11:48:04;5.70;99.90
63435;DHT22;68814;50.872;5.306;2024-01-06T11:50:35;5.70;99.90
63435;DHT22;68814;50.872;5.306;2024-01-06T11:53:02;5.70;99.90
63435;DHT22;68814;50.872;5.306;2024-01-06T11:55:28;5.70;99.90
63435;DHT22;68814;50.872;5.306;2024-01-06T11:57:57;5.70;99.90
63435;DHT22;68814;50.872;5.306;2024-01-06T12:00:27;5.70;99.90
63435;DHT22;68814;50.872;5.306;2024-01-06T12:02:58;5.60;99.90
63435;DHT22;68814;50.872;5.306;2024-01-06T12:05:25;5.70;99.90
63435;DHT22;68814;50.872;5.306;2024-01-06T12:07:59;5.70;99.90
63435;DHT22;68814;50.872;5.306;2024-01-06T12:10:26;5.60;99.90
63435;DHT22;68814;50.872;5.306;2024-01-06T12:13:04;5.60;99.90
63435;DHT22;68814;50.872;5.306;2024-01-06T12:15:33;5.60;99.90
63435;DHT22;68814;50.872;5.306;2024-01-06T12:18:03;5.60;99.90
63435;DHT22;68814;50.872;5.306;2024-01-06T12:20:29;5.60;99.90
63435;DHT22;68814;50.872;5.306;2024-01-06T12:22:56;5.50;99.90
63435;DHT22;68814;50.872;5.306;2024-01-06T12:25:23;5.50;99.90
63435;DHT22;68814;50.872;5.306;2024-01-06T12:27:51;5.50;99.90
63435;DHT22;68814;50.872;5.306;2024-01-06T12:30:21;5.50;99.90
63435;DHT22;68814;50.872;5.306;2024-01-06T12:32:48;5.50;99.90
63435;DHT22;68814;50.872;5.306;2024-01-06T12:35:21;5.40;99.90
63435;DHT22;68814;50.872;5.306;2024-01-06T12:37:47;5.40;99.90
63435;DHT22;68814;50.872;5.306;2024-01-06T12:40:14;5.40;99.90
63435;DHT22;68814;50.872;5.306;2024-01-06T12:42:42;5.40;99.90
63435;DHT22;68814;50.872;5.306;2024-01-06T12:45:08;5.40;99.90
63435;DHT22;68814;50.872;5.306;2024-01-06T12:47:35;5.30;99.90
63435;DHT22;68814;50.872;5.306;2024-01-06T12:50:02;5.30;99.90
63435;DHT22;68814;50.872;5.306;2024-01-06T12:52:29;5.30;99.90
63435;DHT22;68814;50.872;5.306;2024-01-06T12:54:56;5.30;99.90
63435;DHT22;68814;50.872;5.306;2024-01-06T12:57:21;5.40;99.90
63435;DHT22;68814;50.872;5.306;2024-01-06T12:59:47;5.40;99.90
63435;DHT22;68814;50.872;5.306;2024-01-06T13:02:17;5.40;99.90
63435;DHT22;68814;50.872;5.306;2024-01-06T13:04:46;5.40;99.90
63435;DHT22;68814;50.872;5.306;2024-01-06T13:07:13;5.40;99.90
63435;DHT22;68814;50.872;5.306;2024-01-06T13:09:39;5.40;99.90
63435;DHT22;68814;50.872;5.306;2024-01-06T13:12:05;5.40;99.90
63435;DHT22;68814;50.872;5.306;2024-01-06T13:14:31;5.40;99.90
63435;DHT22;68814;50.872;5.306;2024-01-06T13:16:57;5.40;99.90
63435;DHT22;68814;50.872;5.306;2024-01-06T13:19:24;5.40;99.90
63435;DHT22;68814;50.872;5.306;2024-01-06T13:21:50;5.30;99.90
63435;DHT22;68814;50.872;5.306;2024-01-06T13:24:17;5.40;99.90
63435;DHT22;68814;50.872;5.306;2024-01-06T13:26:42;5.40;99.90
63435;DHT22;68814;50.872;5.306;2024-01-06T13:29:08;5.30;99.90
63435;DHT22;68814;50.872;5.306;2024-01-06T13:31:34;5.30;99.90
63435;DHT22;68814;50.872;5.306;2024-01-06T13:33:59;5.30;99.90
63435;DHT22;68814;50.872;5.306;2024-01-06T13:36:25;5.30;99.90
63435;DHT22;68814;50.872;5.306;2024-01-06T13:38:51;5.20;99.90
63435;DHT22;68814;50.872;5.306;2024-01-06T13:41:17;5.20;99.90
63435;DHT22;68814;50.872;5.306;2024-01-06T13:43:44;5.20;99.90
63435;DHT22;68814;50.872;5.306;2024-01-06T13:46:11;5.20;99.90
63435;DHT22;68814;50.872;5.306;2024-01-06T13:48:39;5.20;99.90
63435;DHT22;68814;50.872;5.306;2024-01-06T13:51:09;5.20;99.90
63435;DHT22;68814;50.872;5.306;2024-01-06T13:53:35;5.20;99.90
63435;DHT22;68814;50.872;5.306;2024-01-06T13:56:01;5.10;99.90
63435;DHT22;68814;50.872;5.306;2024-01-06T13:58:29;5.10;99.90
63435;DHT22;68814;50.872;5.306;2024-01-06T14:00:55;5.10;99.90
63435;DHT22;68814;50.872;5.306;2024-01-06T14:03:22;5.10;99.90
63435;DHT22;68814;50.872;5.306;2024-01-06T14:05:48;5.10;99.90
63435;DHT22;68814;50.872;5.306;2024-01-06T14:08:32;5.00;99.90
63435;DHT22;68814;50.872;5.306;2024-01-06T14:10:58;5.00;99.90
63435;DHT22;68814;50.872;5.306;2024-01-06T14:13:24;5.00;99.90
63435;DHT22;68814;50.872;5.306;2024-01-06T14:15:50;5.00;99.90
63435;DHT22;68814;50.872;5.306;2024-01-06T14:18:15;5.00;99.90
63435;DHT22;68814;50.872;5.306;2024-01-06T14:20:43;5.00;99.90
63435;DHT22;68814;50.872;5.306;2024-01-06T14:23:10;5.10;99.90
63435;DHT22;68814;50.872;5.306;2024-01-06T14:25:36;5.00;99.90
63435;DHT22;68814;50.872;5.306;2024-01-06T14:28:02;5.00;99.90
63435;DHT22;68814;50.872;5.306;2024-01-06T14:30:29;5.00;99.90
63435;DHT22;68814;50.872;5.306;2024-01-06T14:32:55;5.10;99.90
63435;DHT22;68814;50.872;5.306;2024-01-06T14:35:21;5.00;99.90
63435;DHT22;68814;50.872;5.306;2024-01-06T14:37:47;5.00;99.90
63435;DHT22;68814;50.872;5.306;2024-01-06T14:40:14;5.00;99.90
63435;DHT22;68814;50.872;5.306;2024-01-06T14:42:47;4.90;99.90
63435;DHT22;68814;50.872;5.306;2024-01-06T14:45:14;4.90;99.90
63435;DHT22;68814;50.872;5.306;2024-01-06T14:47:40;4.90;99.90
63435;DHT22;68814;50.872;5.306;2024-01-06T14:50:06;4.80;99.90
63435;DHT22;68814;50.872;5.306;2024-01-06T14:52:33;4.80;99.90
63435;DHT22;68814;50.872;5.306;2024-01-06T14:55:03;4.80;99.90
63435;DHT22;68814;50.872;5.306;2024-01-06T14:57:32;4.70;99.90
63435;DHT22;68814;50.872;5.306;2024-01-06T14:59:57;4.70;99.90
63435;DHT22;68814;50.872;5.306;2024-01-06T15:02:24;4.70;99.90
63435;DHT22;68814;50.872;5.306;2024-01-06T15:04:50;4.70;99.90
63435;DHT22;68814;50.872;5.306;2024-01-06T15:07:16;4.70;99.90
63435;DHT22;68814;50.872;5.306;2024-01-06T15:09:42;4.70;99.90
63435;DHT22;68814;50.872;5.306;2024-01-06T15:12:08;4.70;99.90
63435;DHT22;68814;50.872;5.306;2024-01-06T15:14:35;4.80;99.90
63435;DHT22;68814;50.872;5.306;2024-01-06T15:17:11;4.70;99.90
63435;DHT22;68814;50.872;5.306;2024-01-06T15:19:38;4.70;99.90
63435;DHT22;68814;50.872;5.306;2024-01-06T15:22:06;4.70;99.90
63435;DHT22;68814;50.872;5.306;2024-01-06T15:24:32;4.60;99.90
63435;DHT22;68814;50.872;5.306;2024-01-06T15:27:00;4.60;99.90
63435;DHT22;68814;50.872;5.306;2024-01-06T15:29:26;4.60;99.90
63435;DHT22;68814;50.872;5.306;2024-01-06T15:31:51;4.70;99.90
63435;DHT22;68814;50.872;5.306;2024-01-06T15:34:22;4.70;99.90
63435;DHT22;68814;50.872;5.306;2024-01-06T15:36:48;4.60;99.90
63435;DHT22;68814;50.872;5.306;2024-01-06T15:39:18;4.60;99.90
63435;DHT22;68814;50.872;5.306;2024-01-06T15:41:45;4.50;99.90
63435;DHT22;68814;50.872;5.306;2024-01-06T15:44:10;4.50;99.90
63435;DHT22;68814;50.872;5.306;2024-01-06T15:46:37;4.60;99.90
63435;DHT22;68814;50.872;5.306;2024-01-06T15:49:03;4.50;99.90
63435;DHT22;68814;50.872;5.306;2024-01-06T15:51:29;4.50;99.90
63435;DHT22;68814;50.872;5.306;2024-01-06T15:53:56;4.50;99.90
63435;DHT22;68814;50.872;5.306;2024-01-06T15:58:59;4.50;99.90